sensor_id;sensor_type;location;lat;lon;timestamp;P1;durP1;ratioP1;P2;durP2;ratioP2
1693;SDS011;844;47.058;15.472;2022-08-20T00:00:17;6.87;;;5.40;;
1693;SDS011;844;47.058;15.472;2022-08-20T00:02:51;10.70;;;5.70;;
1693;SDS011;844;47.058;15.472;2022-08-20T00:05:26;9.27;;;6.13;;
1693;SDS011;844;47.058;15.472;2022-08-20T00:07:59;5.50;;;4.90;;
1693;SDS011;844;47.058;15.472;2022-08-20T00:10:30;5.50;;;4.87;;
1693;SDS011;844;47.058;15.472;2022-08-20T00:13:01;7.67;;;5.30;;
1693;SDS011;844;47.058;15.472;2022-08-20T00:15:32;8.10;;;6.13;;
1693;SDS011;844;47.058;15.472;2022-08-20T00:18:03;8.00;;;5.87;;
1693;SDS011;844;47.058;15.472;2022-08-20T00:20:36;5.53;;;4.90;;
1693;SDS011;844;47.058;15.472;2022-08-20T00:23:09;6.37;;;5.13;;
1693;SDS011;844;47.058;15.472;2022-08-20T00:25:40;7.20;;;5.47;;
1693;SDS011;844;47.058;15.472;2022-08-20T00:28:10;9.83;;;5.27;;
1693;SDS011;844;47.058;15.472;2022-08-20T00:30:41;11.43;;;6.37;;
1693;SDS011;844;47.058;15.472;2022-08-20T00:33:12;7.40;;;5.13;;
1693;SDS011;844;47.058;15.472;2022-08-20T00:35:46;7.57;;;5.43;;
1693;SDS011;844;47.058;15.472;2022-08-20T00:38:18;9.23;;;5.77;;
1693;SDS011;844;47.058;15.472;2022-08-20T00:40:48;6.17;;;5.30;;
1693;SDS011;844;47.058;15.472;2022-08-20T00:43:24;6.87;;;5.00;;
1693;SDS011;844;47.058;15.472;2022-08-20T00:46:01;6.10;;;5.30;;
1693;SDS011;844;47.058;15.472;2022-08-20T00:48:35;6.90;;;5.50;;
1693;SDS011;844;47.058;15.472;2022-08-20T00:51:10;9.83;;;6.77;;
1693;SDS011;844;47.058;15.472;2022-08-20T00:53:57;5.70;;;4.37;;
1693;SDS011;844;47.058;15.472;2022-08-20T00:56:32;7.13;;;5.27;;
1693;SDS011;844;47.058;15.472;2022-08-20T00:59:03;5.73;;;5.23;;
1693;SDS011;844;47.058;15.472;2022-08-20T01:01:38;9.33;;;5.87;;
1693;SDS011;844;47.058;15.472;2022-08-20T01:04:22;7.10;;;5.30;;
1693;SDS011;844;47.058;15.472;2022-08-20T01:06:55;5.63;;;5.07;;
1693;SDS011;844;47.058;15.472;2022-08-20T01:09:24;7.23;;;5.53;;
1693;SDS011;844;47.058;15.472;2022-08-20T01:12:13;8.00;;;4.50;;
1693;SDS011;844;47.058;15.472;2022-08-20T01:14:44;6.80;;;5.67;;
1693;SDS011;844;47.058;15.472;2022-08-20T01:17:15;6.60;;;5.77;;
1693;SDS011;844;47.058;15.472;2022-08-20T01:19:50;12.93;;;5.47;;
1693;SDS011;844;47.058;15.472;2022-08-20T01:22:27;10.10;;;6.17;;
1693;SDS011;844;47.058;15.472;2022-08-20T01:25:22;5.47;;;4.93;;
1693;SDS011;844;47.058;15.472;2022-08-20T01:28:02;6.13;;;5.00;;
1693;SDS011;844;47.058;15.472;2022-08-20T01:30:31;9.70;;;5.53;;
1693;SDS011;844;47.058;15.472;2022-08-20T01:33:01;6.33;;;5.03;;
1693;SDS011;844;47.058;15.472;2022-08-20T01:35:33;6.40;;;5.53;;
1693;SDS011;844;47.058;15.472;2022-08-20T01:38:06;5.87;;;5.37;;
1693;SDS011;844;47.058;15.472;2022-08-20T01:40:56;5.70;;;5.20;;
1693;SDS011;844;47.058;15.472;2022-08-20T01:43:43;5.83;;;3.93;;
1693;SDS011;844;47.058;15.472;2022-08-20T01:46:15;5.70;;;4.43;;
1693;SDS011;844;47.058;15.472;2022-08-20T01:48:46;5.70;;;4.50;;
1693;SDS011;844;47.058;15.472;2022-08-20T01:51:18;8.80;;;5.20;;
1693;SDS011;844;47.058;15.472;2022-08-20T01:53:52;5.33;;;4.80;;
1693;SDS011;844;47.058;15.472;2022-08-20T01:56:26;8.53;;;4.60;;
1693;SDS011;844;47.058;15.472;2022-08-20T01:59:00;7.50;;;5.07;;
1693;SDS011;844;47.058;15.472;2022-08-20T02:01:34;5.27;;;4.60;;
1693;SDS011;844;47.058;15.472;2022-08-20T02:04:12;8.83;;;5.27;;
1693;SDS011;844;47.058;15.472;2022-08-20T02:06:45;7.87;;;6.57;;
1693;SDS011;844;47.058;15.472;2022-08-20T02:09:23;6.33;;;5.57;;
1693;SDS011;844;47.058;15.472;2022-08-20T02:11:54;7.13;;;5.67;;
1693;SDS011;844;47.058;15.472;2022-08-20T02:14:27;8.20;;;5.80;;
1693;SDS011;844;47.058;15.472;2022-08-20T02:16:59;6.10;;;5.23;;
1693;SDS011;844;47.058;15.472;2022-08-20T02:19:29;5.40;;;4.87;;
1693;SDS011;844;47.058;15.472;2022-08-20T02:22:08;4.87;;;4.47;;
1693;SDS011;844;47.058;15.472;2022-08-20T02:24:47;8.93;;;5.73;;
1693;SDS011;844;47.058;15.472;2022-08-20T02:27:17;6.70;;;5.10;;
1693;SDS011;844;47.058;15.472;2022-08-20T02:29:51;6.40;;;4.87;;
1693;SDS011;844;47.058;15.472;2022-08-20T02:32:21;4.87;;;4.43;;
1693;SDS011;844;47.058;15.472;2022-08-20T02:34:59;10.23;;;4.17;;
1693;SDS011;844;47.058;15.472;2022-08-20T02:37:30;7.57;;;5.27;;
1693;SDS011;844;47.058;15.472;2022-08-20T02:39:59;7.40;;;5.60;;
1693;SDS011;844;47.058;15.472;2022-08-20T02:42:29;7.13;;;4.60;;
1693;SDS011;844;47.058;15.472;2022-08-20T02:44:59;7.43;;;4.43;;
1693;SDS011;844;47.058;15.472;2022-08-20T02:47:30;5.50;;;4.70;;
1693;SDS011;844;47.058;15.472;2022-08-20T02:49:59;7.63;;;5.60;;
1693;SDS011;844;47.058;15.472;2022-08-20T02:52:33;9.60;;;5.90;;
1693;SDS011;844;47.058;15.472;2022-08-20T02:55:03;7.97;;;4.40;;
1693;SDS011;844;47.058;15.472;2022-08-20T02:57:33;5.83;;;5.20;;
1693;SDS011;844;47.058;15.472;2022-08-20T03:00:06;5.23;;;4.73;;
1693;SDS011;844;47.058;15.472;2022-08-20T03:02:38;8.73;;;5.13;;
1693;SDS011;844;47.058;15.472;2022-08-20T03:05:14;5.90;;;4.27;;
1693;SDS011;844;47.058;15.472;2022-08-20T03:07:44;5.23;;;4.73;;
1693;SDS011;844;47.058;15.472;2022-08-20T03:10:15;6.23;;;4.80;;
1693;SDS011;844;47.058;15.472;2022-08-20T03:12:48;5.80;;;4.93;;
1693;SDS011;844;47.058;15.472;2022-08-20T03:15:20;7.43;;;4.20;;
1693;SDS011;844;47.058;15.472;2022-08-20T03:17:49;6.17;;;4.70;;
1693;SDS011;844;47.058;15.472;2022-08-20T03:20:19;4.90;;;4.40;;
1693;SDS011;844;47.058;15.472;2022-08-20T03:22:50;6.33;;;4.80;;
1693;SDS011;844;47.058;15.472;2022-08-20T03:25:19;6.10;;;4.57;;
1693;SDS011;844;47.058;15.472;2022-08-20T03:27:48;5.60;;;4.30;;
1693;SDS011;844;47.058;15.472;2022-08-20T03:30:22;7.77;;;5.03;;
1693;SDS011;844;47.058;15.472;2022-08-20T03:32:53;6.90;;;4.73;;
1693;SDS011;844;47.058;15.472;2022-08-20T03:35:24;10.20;;;5.70;;
1693;SDS011;844;47.058;15.472;2022-08-20T03:37:55;5.87;;;4.07;;
1693;SDS011;844;47.058;15.472;2022-08-20T03:40:26;5.90;;;4.37;;
1693;SDS011;844;47.058;15.472;2022-08-20T03:42:57;4.47;;;4.07;;
1693;SDS011;844;47.058;15.472;2022-08-20T03:45:28;5.87;;;5.13;;
1693;SDS011;844;47.058;15.472;2022-08-20T03:47:58;4.53;;;3.87;;
1693;SDS011;844;47.058;15.472;2022-08-20T03:50:28;5.10;;;4.60;;
1693;SDS011;844;47.058;15.472;2022-08-20T03:52:59;8.50;;;5.33;;
1693;SDS011;844;47.058;15.472;2022-08-20T03:55:29;6.13;;;4.80;;
1693;SDS011;844;47.058;15.472;2022-08-20T03:57:59;7.60;;;5.87;;
1693;SDS011;844;47.058;15.472;2022-08-20T04:00:35;5.90;;;4.53;;
1693;SDS011;844;47.058;15.472;2022-08-20T04:03:09;5.97;;;4.37;;
1693;SDS011;844;47.058;15.472;2022-08-20T04:05:38;6.87;;;4.70;;
1693;SDS011;844;47.058;15.472;2022-08-20T04:08:09;4.87;;;4.17;;
1693;SDS011;844;47.058;15.472;2022-08-20T04:10:41;7.63;;;5.83;;
1693;SDS011;844;47.058;15.472;2022-08-20T04:13:12;7.30;;;5.10;;
1693;SDS011;844;47.058;15.472;2022-08-20T04:15:44;6.53;;;5.00;;
1693;SDS011;844;47.058;15.472;2022-08-20T04:18:16;6.00;;;5.10;;
1693;SDS011;844;47.058;15.472;2022-08-20T04:20:50;5.23;;;4.53;;
1693;SDS011;844;47.058;15.472;2022-08-20T04:23:20;6.43;;;5.23;;
1693;SDS011;844;47.058;15.472;2022-08-20T04:25:50;4.83;;;4.30;;
1693;SDS011;844;47.058;15.472;2022-08-20T04:28:23;9.73;;;4.70;;
1693;SDS011;844;47.058;15.472;2022-08-20T04:30:56;6.03;;;4.87;;
1693;SDS011;844;47.058;15.472;2022-08-20T04:33:28;5.80;;;5.20;;
1693;SDS011;844;47.058;15.472;2022-08-20T04:35:59;5.43;;;4.80;;
1693;SDS011;844;47.058;15.472;2022-08-20T04:38:31;6.43;;;5.00;;
1693;SDS011;844;47.058;15.472;2022-08-20T04:41:17;6.73;;;5.10;;
1693;SDS011;844;47.058;15.472;2022-08-20T04:43:50;5.63;;;4.43;;
1693;SDS011;844;47.058;15.472;2022-08-20T04:46:23;7.10;;;5.13;;
1693;SDS011;844;47.058;15.472;2022-08-20T04:48:55;5.37;;;4.87;;
1693;SDS011;844;47.058;15.472;2022-08-20T04:51:24;6.30;;;4.63;;
1693;SDS011;844;47.058;15.472;2022-08-20T04:53:54;5.30;;;4.80;;
1693;SDS011;844;47.058;15.472;2022-08-20T04:56:25;5.67;;;4.87;;
1693;SDS011;844;47.058;15.472;2022-08-20T04:58:59;7.90;;;5.10;;
1693;SDS011;844;47.058;15.472;2022-08-20T05:01:30;4.77;;;4.27;;
1693;SDS011;844;47.058;15.472;2022-08-20T05:03:59;4.87;;;4.37;;
1693;SDS011;844;47.058;15.472;2022-08-20T05:06:30;7.20;;;6.60;;
1693;SDS011;844;47.058;15.472;2022-08-20T05:09:00;7.07;;;5.20;;
1693;SDS011;844;47.058;15.472;2022-08-20T05:11:30;5.10;;;4.57;;
1693;SDS011;844;47.058;15.472;2022-08-20T05:14:03;7.03;;;6.10;;
1693;SDS011;844;47.058;15.472;2022-08-20T05:16:37;5.73;;;5.13;;
1693;SDS011;844;47.058;15.472;2022-08-20T05:19:07;6.97;;;6.07;;
1693;SDS011;844;47.058;15.472;2022-08-20T05:21:38;8.90;;;5.40;;
1693;SDS011;844;47.058;15.472;2022-08-20T05:24:08;4.77;;;4.37;;
1693;SDS011;844;47.058;15.472;2022-08-20T05:26:37;5.27;;;4.87;;
1693;SDS011;844;47.058;15.472;2022-08-20T05:29:06;5.63;;;5.13;;
1693;SDS011;844;47.058;15.472;2022-08-20T05:31:37;6.00;;;4.97;;
1693;SDS011;844;47.058;15.472;2022-08-20T05:34:10;6.40;;;5.20;;
1693;SDS011;844;47.058;15.472;2022-08-20T05:36:41;12.20;;;6.60;;
1693;SDS011;844;47.058;15.472;2022-08-20T05:39:15;6.33;;;4.70;;
1693;SDS011;844;47.058;15.472;2022-08-20T05:41:46;9.47;;;5.67;;
1693;SDS011;844;47.058;15.472;2022-08-20T05:44:17;5.57;;;4.70;;
1693;SDS011;844;47.058;15.472;2022-08-20T05:46:47;4.83;;;4.50;;
1693;SDS011;844;47.058;15.472;2022-08-20T05:49:17;5.53;;;4.63;;
1693;SDS011;844;47.058;15.472;2022-08-20T05:51:48;4.83;;;4.43;;
1693;SDS011;844;47.058;15.472;2022-08-20T05:54:18;7.50;;;5.03;;
1693;SDS011;844;47.058;15.472;2022-08-20T05:56:47;5.83;;;5.17;;
1693;SDS011;844;47.058;15.472;2022-08-20T05:59:17;6.30;;;5.70;;
1693;SDS011;844;47.058;15.472;2022-08-20T06:01:51;8.70;;;5.50;;
1693;SDS011;844;47.058;15.472;2022-08-20T06:04:20;5.27;;;4.87;;
1693;SDS011;844;47.058;15.472;2022-08-20T06:06:55;7.70;;;5.70;;
1693;SDS011;844;47.058;15.472;2022-08-20T06:09:29;8.30;;;5.20;;
1693;SDS011;844;47.058;15.472;2022-08-20T06:12:00;12.80;;;5.67;;
1693;SDS011;844;47.058;15.472;2022-08-20T06:14:32;6.03;;;5.03;;
1693;SDS011;844;47.058;15.472;2022-08-20T06:17:05;6.63;;;5.07;;
1693;SDS011;844;47.058;15.472;2022-08-20T06:19:39;8.00;;;5.63;;
1693;SDS011;844;47.058;15.472;2022-08-20T06:22:11;7.97;;;5.40;;
1693;SDS011;844;47.058;15.472;2022-08-20T06:24:50;7.07;;;5.47;;
1693;SDS011;844;47.058;15.472;2022-08-20T06:27:19;6.43;;;5.73;;
1693;SDS011;844;47.058;15.472;2022-08-20T06:29:49;6.83;;;4.27;;
1693;SDS011;844;47.058;15.472;2022-08-20T06:32:21;9.20;;;4.70;;
1693;SDS011;844;47.058;15.472;2022-08-20T06:34:58;5.63;;;5.13;;
1693;SDS011;844;47.058;15.472;2022-08-20T06:37:29;7.17;;;6.47;;
1693;SDS011;844;47.058;15.472;2022-08-20T06:40:03;7.90;;;4.93;;
1693;SDS011;844;47.058;15.472;2022-08-20T06:42:36;5.87;;;4.70;;
1693;SDS011;844;47.058;15.472;2022-08-20T06:45:15;8.03;;;5.90;;
1693;SDS011;844;47.058;15.472;2022-08-20T06:47:52;5.53;;;4.30;;
1693;SDS011;844;47.058;15.472;2022-08-20T06:50:24;6.20;;;5.60;;
1693;SDS011;844;47.058;15.472;2022-08-20T06:52:56;7.07;;;5.13;;
1693;SDS011;844;47.058;15.472;2022-08-20T06:55:26;6.40;;;4.83;;
1693;SDS011;844;47.058;15.472;2022-08-20T06:57:57;6.33;;;5.73;;
1693;SDS011;844;47.058;15.472;2022-08-20T07:00:29;5.87;;;5.37;;
1693;SDS011;844;47.058;15.472;2022-08-20T07:03:03;7.07;;;4.80;;
1693;SDS011;844;47.058;15.472;2022-08-20T07:05:34;8.13;;;5.60;;
1693;SDS011;844;47.058;15.472;2022-08-20T07:08:08;11.13;;;7.40;;
1693;SDS011;844;47.058;15.472;2022-08-20T07:10:39;8.37;;;6.83;;
1693;SDS011;844;47.058;15.472;2022-08-20T07:13:09;10.40;;;7.47;;
1693;SDS011;844;47.058;15.472;2022-08-20T07:15:41;10.27;;;5.90;;
1693;SDS011;844;47.058;15.472;2022-08-20T07:18:13;9.63;;;7.10;;
1693;SDS011;844;47.058;15.472;2022-08-20T07:20:54;11.23;;;6.10;;
1693;SDS011;844;47.058;15.472;2022-08-20T07:23:24;7.97;;;6.70;;
1693;SDS011;844;47.058;15.472;2022-08-20T07:25:54;11.67;;;6.80;;
1693;SDS011;844;47.058;15.472;2022-08-20T07:28:25;7.20;;;5.67;;
1693;SDS011;844;47.058;15.472;2022-08-20T07:30:57;11.57;;;5.70;;
1693;SDS011;844;47.058;15.472;2022-08-20T07:33:47;5.50;;;5.00;;
1693;SDS011;844;47.058;15.472;2022-08-20T07:36:19;7.33;;;6.63;;
1693;SDS011;844;47.058;15.472;2022-08-20T07:38:48;8.80;;;6.60;;
1693;SDS011;844;47.058;15.472;2022-08-20T07:41:18;12.87;;;6.53;;
1693;SDS011;844;47.058;15.472;2022-08-20T07:43:48;6.87;;;6.23;;
1693;SDS011;844;47.058;15.472;2022-08-20T07:46:18;12.03;;;7.23;;
1693;SDS011;844;47.058;15.472;2022-08-20T07:48:49;7.03;;;6.30;;
1693;SDS011;844;47.058;15.472;2022-08-20T07:51:20;8.07;;;6.93;;
1693;SDS011;844;47.058;15.472;2022-08-20T07:53:49;6.20;;;5.60;;
1693;SDS011;844;47.058;15.472;2022-08-20T07:56:20;7.40;;;5.63;;
1693;SDS011;844;47.058;15.472;2022-08-20T07:58:57;8.00;;;5.50;;
1693;SDS011;844;47.058;15.472;2022-08-20T08:01:29;10.80;;;6.17;;
1693;SDS011;844;47.058;15.472;2022-08-20T08:04:00;7.40;;;6.30;;
1693;SDS011;844;47.058;15.472;2022-08-20T08:06:29;9.33;;;6.23;;
1693;SDS011;844;47.058;15.472;2022-08-20T08:09:00;8.20;;;6.27;;
1693;SDS011;844;47.058;15.472;2022-08-20T08:11:35;10.50;;;6.30;;
1693;SDS011;844;47.058;15.472;2022-08-20T08:14:13;8.50;;;6.40;;
1693;SDS011;844;47.058;15.472;2022-08-20T08:16:49;6.27;;;5.77;;
1693;SDS011;844;47.058;15.472;2022-08-20T08:19:25;7.07;;;5.23;;
1693;SDS011;844;47.058;15.472;2022-08-20T08:22:04;8.67;;;5.57;;
1693;SDS011;844;47.058;15.472;2022-08-20T08:24:38;5.43;;;4.93;;
1693;SDS011;844;47.058;15.472;2022-08-20T08:27:23;9.40;;;5.67;;
1693;SDS011;844;47.058;15.472;2022-08-20T08:29:52;9.77;;;4.50;;
1693;SDS011;844;47.058;15.472;2022-08-20T08:32:21;7.37;;;5.60;;
1693;SDS011;844;47.058;15.472;2022-08-20T08:34:53;7.07;;;5.20;;
1693;SDS011;844;47.058;15.472;2022-08-20T08:37:22;5.87;;;5.30;;
1693;SDS011;844;47.058;15.472;2022-08-20T08:39:56;5.03;;;4.63;;
1693;SDS011;844;47.058;15.472;2022-08-20T08:42:27;4.70;;;4.20;;
1693;SDS011;844;47.058;15.472;2022-08-20T08:45:09;4.43;;;4.00;;
1693;SDS011;844;47.058;15.472;2022-08-20T08:47:42;6.67;;;3.90;;
1693;SDS011;844;47.058;15.472;2022-08-20T08:50:18;4.93;;;3.63;;
1693;SDS011;844;47.058;15.472;2022-08-20T08:53:11;5.47;;;5.00;;
1693;SDS011;844;47.058;15.472;2022-08-20T08:55:46;4.30;;;3.90;;
1693;SDS011;844;47.058;15.472;2022-08-20T08:58:15;8.03;;;4.63;;
1693;SDS011;844;47.058;15.472;2022-08-20T09:00:44;8.77;;;4.67;;
1693;SDS011;844;47.058;15.472;2022-08-20T09:03:24;4.33;;;3.47;;
1693;SDS011;844;47.058;15.472;2022-08-20T09:05:58;4.30;;;4.00;;
1693;SDS011;844;47.058;15.472;2022-08-20T09:08:29;4.60;;;3.60;;
1693;SDS011;844;47.058;15.472;2022-08-20T09:11:05;4.53;;;4.00;;
1693;SDS011;844;47.058;15.472;2022-08-20T09:13:36;5.20;;;3.73;;
1693;SDS011;844;47.058;15.472;2022-08-20T09:16:06;5.93;;;3.83;;
1693;SDS011;844;47.058;15.472;2022-08-20T09:18:35;4.80;;;4.00;;
1693;SDS011;844;47.058;15.472;2022-08-20T09:21:06;3.80;;;2.90;;
1693;SDS011;844;47.058;15.472;2022-08-20T09:23:44;3.20;;;2.90;;
1693;SDS011;844;47.058;15.472;2022-08-20T09:26:13;3.37;;;3.07;;
1693;SDS011;844;47.058;15.472;2022-08-20T09:28:44;4.07;;;3.00;;
1693;SDS011;844;47.058;15.472;2022-08-20T09:31:18;3.53;;;3.00;;
1693;SDS011;844;47.058;15.472;2022-08-20T09:33:50;3.50;;;2.83;;
1693;SDS011;844;47.058;15.472;2022-08-20T09:36:21;4.00;;;2.40;;
1693;SDS011;844;47.058;15.472;2022-08-20T09:38:58;3.87;;;2.80;;
1693;SDS011;844;47.058;15.472;2022-08-20T09:41:28;3.10;;;2.10;;
1693;SDS011;844;47.058;15.472;2022-08-20T09:44:00;2.23;;;1.50;;
1693;SDS011;844;47.058;15.472;2022-08-20T09:46:29;2.50;;;2.30;;
1693;SDS011;844;47.058;15.472;2022-08-20T09:48:58;3.70;;;3.07;;
1693;SDS011;844;47.058;15.472;2022-08-20T09:51:28;4.10;;;2.90;;
1693;SDS011;844;47.058;15.472;2022-08-20T09:53:58;6.20;;;3.00;;
1693;SDS011;844;47.058;15.472;2022-08-20T09:56:28;2.50;;;2.10;;
1693;SDS011;844;47.058;15.472;2022-08-20T09:59:01;2.97;;;2.77;;
1693;SDS011;844;47.058;15.472;2022-08-20T10:01:30;5.70;;;3.20;;
1693;SDS011;844;47.058;15.472;2022-08-20T10:04:00;3.57;;;1.93;;
1693;SDS011;844;47.058;15.472;2022-08-20T10:06:31;2.23;;;1.73;;
1693;SDS011;844;47.058;15.472;2022-08-20T10:09:07;2.93;;;1.87;;
1693;SDS011;844;47.058;15.472;2022-08-20T10:11:36;1.93;;;1.70;;
1693;SDS011;844;47.058;15.472;2022-08-20T10:14:05;2.47;;;1.70;;
1693;SDS011;844;47.058;15.472;2022-08-20T10:16:34;3.57;;;1.30;;
1693;SDS011;844;47.058;15.472;2022-08-20T10:19:04;3.03;;;1.60;;
1693;SDS011;844;47.058;15.472;2022-08-20T10:21:34;1.20;;;1.10;;
1693;SDS011;844;47.058;15.472;2022-08-20T10:24:05;1.33;;;1.07;;
1693;SDS011;844;47.058;15.472;2022-08-20T10:26:36;0.90;;;0.80;;
1693;SDS011;844;47.058;15.472;2022-08-20T10:29:05;1.03;;;0.90;;
1693;SDS011;844;47.058;15.472;2022-08-20T10:31:34;2.10;;;0.90;;
1693;SDS011;844;47.058;15.472;2022-08-20T10:34:03;1.30;;;0.90;;
1693;SDS011;844;47.058;15.472;2022-08-20T10:36:33;1.60;;;1.00;;
1693;SDS011;844;47.058;15.472;2022-08-20T10:39:03;0.80;;;0.60;;
1693;SDS011;844;47.058;15.472;2022-08-20T10:41:33;1.00;;;0.70;;
1693;SDS011;844;47.058;15.472;2022-08-20T10:44:04;1.03;;;0.87;;
1693;SDS011;844;47.058;15.472;2022-08-20T10:46:34;2.30;;;1.20;;
1693;SDS011;844;47.058;15.472;2022-08-20T10:49:03;1.37;;;0.80;;
1693;SDS011;844;47.058;15.472;2022-08-20T10:51:32;1.60;;;0.87;;
1693;SDS011;844;47.058;15.472;2022-08-20T10:54:02;0.90;;;0.70;;
1693;SDS011;844;47.058;15.472;2022-08-20T10:56:37;0.93;;;0.83;;
1693;SDS011;844;47.058;15.472;2022-08-20T10:59:07;1.30;;;0.97;;
1693;SDS011;844;47.058;15.472;2022-08-20T11:01:36;1.53;;;0.70;;
1693;SDS011;844;47.058;15.472;2022-08-20T11:04:08;2.00;;;1.30;;
1693;SDS011;844;47.058;15.472;2022-08-20T11:06:38;0.80;;;0.80;;
1693;SDS011;844;47.058;15.472;2022-08-20T11:09:08;1.33;;;0.97;;
1693;SDS011;844;47.058;15.472;2022-08-20T11:11:38;2.53;;;1.10;;
1693;SDS011;844;47.058;15.472;2022-08-20T11:14:06;1.03;;;0.83;;
1693;SDS011;844;47.058;15.472;2022-08-20T11:16:35;1.80;;;1.00;;
1693;SDS011;844;47.058;15.472;2022-08-20T11:19:05;1.40;;;1.27;;
1693;SDS011;844;47.058;15.472;2022-08-20T11:21:34;1.30;;;1.20;;
1693;SDS011;844;47.058;15.472;2022-08-20T11:24:04;1.40;;;1.20;;
1693;SDS011;844;47.058;15.472;2022-08-20T11:26:36;1.47;;;1.37;;
1693;SDS011;844;47.058;15.472;2022-08-20T11:29:06;1.33;;;1.23;;
1693;SDS011;844;47.058;15.472;2022-08-20T11:31:35;2.33;;;1.17;;
1693;SDS011;844;47.058;15.472;2022-08-20T11:34:04;1.23;;;1.13;;
1693;SDS011;844;47.058;15.472;2022-08-20T11:36:38;1.53;;;1.43;;
1693;SDS011;844;47.058;15.472;2022-08-20T11:39:09;1.30;;;1.20;;
1693;SDS011;844;47.058;15.472;2022-08-20T11:41:40;1.30;;;0.97;;
1693;SDS011;844;47.058;15.472;2022-08-20T11:44:11;2.70;;;1.63;;
1693;SDS011;844;47.058;15.472;2022-08-20T11:46:48;2.30;;;1.73;;
1693;SDS011;844;47.058;15.472;2022-08-20T11:49:17;1.33;;;1.20;;
1693;SDS011;844;47.058;15.472;2022-08-20T11:51:46;1.77;;;1.60;;
1693;SDS011;844;47.058;15.472;2022-08-20T11:54:16;8.70;;;2.20;;
1693;SDS011;844;47.058;15.472;2022-08-20T11:56:46;2.33;;;2.03;;
1693;SDS011;844;47.058;15.472;2022-08-20T11:59:15;2.67;;;1.70;;
1693;SDS011;844;47.058;15.472;2022-08-20T12:01:44;2.97;;;1.90;;
1693;SDS011;844;47.058;15.472;2022-08-20T12:04:28;2.93;;;2.37;;
1693;SDS011;844;47.058;15.472;2022-08-20T12:07:07;2.37;;;1.73;;
1693;SDS011;844;47.058;15.472;2022-08-20T12:09:37;3.50;;;2.23;;
1693;SDS011;844;47.058;15.472;2022-08-20T12:12:18;4.10;;;1.97;;
1693;SDS011;844;47.058;15.472;2022-08-20T12:14:49;3.70;;;2.40;;
1693;SDS011;844;47.058;15.472;2022-08-20T12:17:22;2.10;;;1.90;;
1693;SDS011;844;47.058;15.472;2022-08-20T12:19:54;2.00;;;1.80;;
1693;SDS011;844;47.058;15.472;2022-08-20T12:22:25;4.43;;;2.50;;
1693;SDS011;844;47.058;15.472;2022-08-20T12:24:54;2.23;;;2.03;;
1693;SDS011;844;47.058;15.472;2022-08-20T12:27:26;3.40;;;1.97;;
1693;SDS011;844;47.058;15.472;2022-08-20T12:29:57;2.30;;;1.80;;
1693;SDS011;844;47.058;15.472;2022-08-20T12:32:29;1.90;;;1.80;;
1693;SDS011;844;47.058;15.472;2022-08-20T12:34:59;2.70;;;1.80;;
1693;SDS011;844;47.058;15.472;2022-08-20T12:37:29;1.80;;;1.70;;
1693;SDS011;844;47.058;15.472;2022-08-20T12:40:00;3.70;;;2.30;;
1693;SDS011;844;47.058;15.472;2022-08-20T12:42:35;5.07;;;2.80;;
1693;SDS011;844;47.058;15.472;2022-08-20T12:45:04;2.10;;;1.77;;
1693;SDS011;844;47.058;15.472;2022-08-20T12:47:36;3.20;;;2.20;;
1693;SDS011;844;47.058;15.472;2022-08-20T12:50:11;1.93;;;1.77;;
1693;SDS011;844;47.058;15.472;2022-08-20T12:52:43;3.00;;;1.83;;
1693;SDS011;844;47.058;15.472;2022-08-20T12:55:14;3.33;;;1.80;;
1693;SDS011;844;47.058;15.472;2022-08-20T12:57:48;2.33;;;1.53;;
1693;SDS011;844;47.058;15.472;2022-08-20T13:00:20;2.70;;;1.67;;
1693;SDS011;844;47.058;15.472;2022-08-20T13:02:53;2.13;;;1.40;;
1693;SDS011;844;47.058;15.472;2022-08-20T13:05:24;3.37;;;1.60;;
1693;SDS011;844;47.058;15.472;2022-08-20T13:07:55;1.40;;;1.30;;
1693;SDS011;844;47.058;15.472;2022-08-20T13:10:25;1.47;;;1.37;;
1693;SDS011;844;47.058;15.472;2022-08-20T13:12:58;1.87;;;1.50;;
1693;SDS011;844;47.058;15.472;2022-08-20T13:15:29;3.20;;;1.90;;
1693;SDS011;844;47.058;15.472;2022-08-20T13:17:59;2.70;;;1.43;;
1693;SDS011;844;47.058;15.472;2022-08-20T13:20:31;2.13;;;1.43;;
1693;SDS011;844;47.058;15.472;2022-08-20T13:23:00;2.10;;;1.73;;
1693;SDS011;844;47.058;15.472;2022-08-20T13:25:30;1.47;;;1.37;;
1693;SDS011;844;47.058;15.472;2022-08-20T13:28:02;3.70;;;2.10;;
1693;SDS011;844;47.058;15.472;2022-08-20T13:30:32;2.10;;;1.40;;
1693;SDS011;844;47.058;15.472;2022-08-20T13:33:04;2.13;;;1.93;;
1693;SDS011;844;47.058;15.472;2022-08-20T13:35:33;4.87;;;2.27;;
1693;SDS011;844;47.058;15.472;2022-08-20T13:38:02;6.33;;;4.23;;
1693;SDS011;844;47.058;15.472;2022-08-20T13:40:31;2.87;;;2.20;;
1693;SDS011;844;47.058;15.472;2022-08-20T13:43:02;3.30;;;2.03;;
1693;SDS011;844;47.058;15.472;2022-08-20T13:45:33;4.93;;;2.67;;
1693;SDS011;844;47.058;15.472;2022-08-20T13:48:04;2.53;;;2.33;;
1693;SDS011;844;47.058;15.472;2022-08-20T13:50:41;2.47;;;2.27;;
1693;SDS011;844;47.058;15.472;2022-08-20T13:53:13;2.77;;;2.47;;
1693;SDS011;844;47.058;15.472;2022-08-20T13:55:44;3.97;;;2.60;;
1693;SDS011;844;47.058;15.472;2022-08-20T13:58:14;2.90;;;2.43;;
1693;SDS011;844;47.058;15.472;2022-08-20T14:00:44;7.20;;;2.70;;
1693;SDS011;844;47.058;15.472;2022-08-20T14:03:14;2.83;;;2.30;;
1693;SDS011;844;47.058;15.472;2022-08-20T14:05:51;4.20;;;2.60;;
1693;SDS011;844;47.058;15.472;2022-08-20T14:08:20;3.80;;;1.60;;
1693;SDS011;844;47.058;15.472;2022-08-20T14:10:51;3.20;;;1.67;;
1693;SDS011;844;47.058;15.472;2022-08-20T14:13:25;2.93;;;2.37;;
1693;SDS011;844;47.058;15.472;2022-08-20T14:15:55;4.63;;;2.57;;
1693;SDS011;844;47.058;15.472;2022-08-20T14:18:24;2.80;;;1.80;;
1693;SDS011;844;47.058;15.472;2022-08-20T14:20:53;1.07;;;0.97;;
1693;SDS011;844;47.058;15.472;2022-08-20T14:23:22;0.83;;;0.60;;
1693;SDS011;844;47.058;15.472;2022-08-20T14:25:51;1.60;;;0.60;;
1693;SDS011;844;47.058;15.472;2022-08-20T14:28:21;0.80;;;0.60;;
1693;SDS011;844;47.058;15.472;2022-08-20T14:30:52;1.20;;;0.60;;
1693;SDS011;844;47.058;15.472;2022-08-20T14:33:22;0.80;;;0.60;;
1693;SDS011;844;47.058;15.472;2022-08-20T14:35:51;1.63;;;0.60;;
1693;SDS011;844;47.058;15.472;2022-08-20T14:38:21;0.83;;;0.70;;
1693;SDS011;844;47.058;15.472;2022-08-20T14:40:50;1.00;;;0.80;;
1693;SDS011;844;47.058;15.472;2022-08-20T14:43:19;0.90;;;0.70;;
1693;SDS011;844;47.058;15.472;2022-08-20T14:45:50;0.80;;;0.63;;
1693;SDS011;844;47.058;15.472;2022-08-20T14:48:19;0.90;;;0.70;;
1693;SDS011;844;47.058;15.472;2022-08-20T14:50:51;1.17;;;0.50;;
1693;SDS011;844;47.058;15.472;2022-08-20T14:53:22;0.80;;;0.40;;
1693;SDS011;844;47.058;15.472;2022-08-20T14:55:51;0.90;;;0.57;;
1693;SDS011;844;47.058;15.472;2022-08-20T14:58:19;1.10;;;0.50;;
1693;SDS011;844;47.058;15.472;2022-08-20T15:00:52;0.80;;;0.80;;
1693;SDS011;844;47.058;15.472;2022-08-20T15:03:21;0.73;;;0.57;;
1693;SDS011;844;47.058;15.472;2022-08-20T15:05:56;1.17;;;0.60;;
1693;SDS011;844;47.058;15.472;2022-08-20T15:08:26;0.83;;;0.60;;
1693;SDS011;844;47.058;15.472;2022-08-20T15:10:55;0.70;;;0.50;;
1693;SDS011;844;47.058;15.472;2022-08-20T15:13:24;0.70;;;0.53;;
1693;SDS011;844;47.058;15.472;2022-08-20T15:15:56;1.53;;;1.43;;
1693;SDS011;844;47.058;15.472;2022-08-20T15:18:25;1.20;;;0.90;;
1693;SDS011;844;47.058;15.472;2022-08-20T15:20:55;1.10;;;0.80;;
1693;SDS011;844;47.058;15.472;2022-08-20T15:23:24;0.90;;;0.67;;
1693;SDS011;844;47.058;15.472;2022-08-20T15:25:53;0.70;;;0.53;;
1693;SDS011;844;47.058;15.472;2022-08-20T15:28:22;1.23;;;0.90;;
1693;SDS011;844;47.058;15.472;2022-08-20T15:30:52;1.37;;;0.80;;
1693;SDS011;844;47.058;15.472;2022-08-20T15:33:23;1.13;;;0.73;;
1693;SDS011;844;47.058;15.472;2022-08-20T15:35:52;0.80;;;0.73;;
1693;SDS011;844;47.058;15.472;2022-08-20T15:38:21;0.80;;;0.73;;
1693;SDS011;844;47.058;15.472;2022-08-20T15:40:52;1.20;;;0.80;;
1693;SDS011;844;47.058;15.472;2022-08-20T15:43:22;0.87;;;0.87;;